Terminal Aerodrome Forecast
Issued by NWS

Home | Current Version | Previous Version | Text Only | Print | Product List | Glossary On
Versions: 1 2 3 4 5 6 7 8 9 10 11 12 13 14 15 16 17 18
000
FTUS46 KPDT 171202 CCA
TAFDLS
TAF COR
KDLS 171202Z 1712/1812 VRB03KT P6SM BKN050 OVC100
      TEMPO 1712/1716 -RA BKN030 BKN050
     FM171600 32005KT P6SM VCSH BKN050
     FM180200 30012KT P6SM BKN050=

USA.gov is the U.S. government's official web portal to all federal, state and local government web resources and services.